sensor_id;sensor_type;location;lat;lon;timestamp;P1;durP1;ratioP1;P2;durP2;ratioP2
61391;SDS011;47261;52.892;5.738;2023-04-07T00:00:56;48.30;;;11.48;;
61391;SDS011;47261;52.892;5.738;2023-04-07T00:03:22;45.73;;;9.73;;
61391;SDS011;47261;52.892;5.738;2023-04-07T00:05:48;43.80;;;9.97;;
61391;SDS011;47261;52.892;5.738;2023-04-07T00:08:13;55.13;;;10.83;;
61391;SDS011;47261;52.892;5.738;2023-04-07T00:10:39;61.83;;;10.18;;
61391;SDS011;47261;52.892;5.738;2023-04-07T00:13:05;67.50;;;11.53;;
61391;SDS011;47261;52.892;5.738;2023-04-07T00:15:31;59.80;;;10.98;;
61391;SDS011;47261;52.892;5.738;2023-04-07T00:17:56;61.27;;;12.30;;
61391;SDS011;47261;52.892;5.738;2023-04-07T00:20:22;59.90;;;12.82;;
61391;SDS011;47261;52.892;5.738;2023-04-07T00:22:48;60.13;;;10.57;;
61391;SDS011;47261;52.892;5.738;2023-04-07T00:25:14;66.65;;;13.60;;
61391;SDS011;47261;52.892;5.738;2023-04-07T00:27:39;59.27;;;10.67;;
61391;SDS011;47261;52.892;5.738;2023-04-07T00:30:05;60.95;;;11.68;;
61391;SDS011;47261;52.892;5.738;2023-04-07T00:32:31;65.93;;;12.02;;
61391;SDS011;47261;52.892;5.738;2023-04-07T00:34:57;54.23;;;9.53;;
61391;SDS011;47261;52.892;5.738;2023-04-07T00:37:23;65.23;;;10.70;;
61391;SDS011;47261;52.892;5.738;2023-04-07T00:39:49;68.03;;;10.50;;
61391;SDS011;47261;52.892;5.738;2023-04-07T00:42:15;26.30;;;7.20;;
61391;SDS011;47261;52.892;5.738;2023-04-07T00:44:41;64.63;;;10.90;;
61391;SDS011;47261;52.892;5.738;2023-04-07T00:47:07;76.00;;;10.70;;
61391;SDS011;47261;52.892;5.738;2023-04-07T00:49:33;58.35;;;10.60;;
61391;SDS011;47261;52.892;5.738;2023-04-07T00:52:00;60.25;;;9.48;;
61391;SDS011;47261;52.892;5.738;2023-04-07T00:54:26;75.70;;;11.40;;
61391;SDS011;47261;52.892;5.738;2023-04-07T00:56:54;67.65;;;10.73;;
61391;SDS011;47261;52.892;5.738;2023-04-07T00:59:21;61.22;;;11.60;;
61391;SDS011;47261;52.892;5.738;2023-04-07T01:07:04;72.20;;;13.32;;
61391;SDS011;47261;52.892;5.738;2023-04-07T01:09:36;49.75;;;9.65;;
61391;SDS011;47261;52.892;5.738;2023-04-07T01:14:45;42.27;;;9.37;;
61391;SDS011;47261;52.892;5.738;2023-04-07T01:17:14;39.50;;;10.05;;
61391;SDS011;47261;52.892;5.738;2023-04-07T01:19:44;17.48;;;5.15;;
61391;SDS011;47261;52.892;5.738;2023-04-07T01:22:16;24.02;;;6.85;;
61391;SDS011;47261;52.892;5.738;2023-04-07T01:24:56;23.10;;;6.45;;
61391;SDS011;47261;52.892;5.738;2023-04-07T01:29:56;27.48;;;7.38;;
61391;SDS011;47261;52.892;5.738;2023-04-07T01:32:24;30.05;;;8.38;;
61391;SDS011;47261;52.892;5.738;2023-04-07T01:34:51;20.30;;;6.03;;
61391;SDS011;47261;52.892;5.738;2023-04-07T01:37:18;25.73;;;6.50;;
61391;SDS011;47261;52.892;5.738;2023-04-07T01:39:45;24.30;;;5.03;;
61391;SDS011;47261;52.892;5.738;2023-04-07T01:42:10;30.10;;;5.72;;
61391;SDS011;47261;52.892;5.738;2023-04-07T01:44:36;24.88;;;6.50;;
61391;SDS011;47261;52.892;5.738;2023-04-07T01:47:03;21.07;;;6.70;;
61391;SDS011;47261;52.892;5.738;2023-04-07T01:49:30;29.45;;;7.38;;
61391;SDS011;47261;52.892;5.738;2023-04-07T01:51:56;27.42;;;6.63;;
61391;SDS011;47261;52.892;5.738;2023-04-07T01:54:22;17.83;;;4.43;;
61391;SDS011;47261;52.892;5.738;2023-04-07T01:56:48;25.63;;;6.17;;
61391;SDS011;47261;52.892;5.738;2023-04-07T01:59:13;25.70;;;4.97;;
61391;SDS011;47261;52.892;5.738;2023-04-07T02:01:39;30.33;;;6.73;;
61391;SDS011;47261;52.892;5.738;2023-04-07T02:04:11;31.23;;;6.93;;
61391;SDS011;47261;52.892;5.738;2023-04-07T02:07:05;24.48;;;6.40;;
61391;SDS011;47261;52.892;5.738;2023-04-07T02:09:34;26.43;;;5.57;;
61391;SDS011;47261;52.892;5.738;2023-04-07T02:12:04;27.85;;;6.00;;
61391;SDS011;47261;52.892;5.738;2023-04-07T02:14:32;39.63;;;6.80;;
61391;SDS011;47261;52.892;5.738;2023-04-07T02:16:58;19.70;;;4.90;;
61391;SDS011;47261;52.892;5.738;2023-04-07T02:19:25;19.42;;;5.38;;
61391;SDS011;47261;52.892;5.738;2023-04-07T02:21:51;28.00;;;5.33;;
61391;SDS011;47261;52.892;5.738;2023-04-07T02:24:19;33.78;;;6.32;;
61391;SDS011;47261;52.892;5.738;2023-04-07T02:26:48;26.92;;;5.88;;
61391;SDS011;47261;52.892;5.738;2023-04-07T02:29:13;25.50;;;4.90;;
61391;SDS011;47261;52.892;5.738;2023-04-07T02:31:39;30.58;;;6.22;;
61391;SDS011;47261;52.892;5.738;2023-04-07T02:34:05;25.60;;;5.70;;
61391;SDS011;47261;52.892;5.738;2023-04-07T02:36:30;25.58;;;6.07;;
61391;SDS011;47261;52.892;5.738;2023-04-07T02:38:56;32.43;;;6.43;;
61391;SDS011;47261;52.892;5.738;2023-04-07T02:41:22;33.42;;;5.40;;
61391;SDS011;47261;52.892;5.738;2023-04-07T02:43:48;32.60;;;7.07;;
61391;SDS011;47261;52.892;5.738;2023-04-07T02:46:13;23.55;;;4.90;;
61391;SDS011;47261;52.892;5.738;2023-04-07T02:48:39;17.97;;;4.77;;
61391;SDS011;47261;52.892;5.738;2023-04-07T02:51:05;20.52;;;4.32;;
61391;SDS011;47261;52.892;5.738;2023-04-07T02:53:30;16.00;;;4.10;;
61391;SDS011;47261;52.892;5.738;2023-04-07T02:55:56;20.73;;;5.87;;
61391;SDS011;47261;52.892;5.738;2023-04-07T02:58:21;34.92;;;7.63;;
61391;SDS011;47261;52.892;5.738;2023-04-07T03:00:47;24.03;;;6.03;;
61391;SDS011;47261;52.892;5.738;2023-04-07T03:03:13;27.02;;;4.68;;
61391;SDS011;47261;52.892;5.738;2023-04-07T03:05:39;30.48;;;5.85;;
61391;SDS011;47261;52.892;5.738;2023-04-07T03:08:04;31.70;;;6.57;;
61391;SDS011;47261;52.892;5.738;2023-04-07T03:10:30;21.30;;;6.95;;
61391;SDS011;47261;52.892;5.738;2023-04-07T03:12:56;22.67;;;5.70;;
61391;SDS011;47261;52.892;5.738;2023-04-07T03:15:22;30.02;;;6.90;;
61391;SDS011;47261;52.892;5.738;2023-04-07T03:17:47;22.73;;;5.43;;
61391;SDS011;47261;52.892;5.738;2023-04-07T03:20:13;27.10;;;7.45;;
61391;SDS011;47261;52.892;5.738;2023-04-07T03:22:39;28.40;;;6.23;;
61391;SDS011;47261;52.892;5.738;2023-04-07T03:25:05;28.15;;;6.40;;
61391;SDS011;47261;52.892;5.738;2023-04-07T03:27:31;19.27;;;6.55;;
61391;SDS011;47261;52.892;5.738;2023-04-07T03:29:56;30.10;;;8.10;;
61391;SDS011;47261;52.892;5.738;2023-04-07T03:32:22;28.17;;;6.93;;
61391;SDS011;47261;52.892;5.738;2023-04-07T03:34:48;25.97;;;7.23;;
61391;SDS011;47261;52.892;5.738;2023-04-07T03:37:13;26.97;;;8.20;;
61391;SDS011;47261;52.892;5.738;2023-04-07T03:39:39;31.65;;;8.00;;
61391;SDS011;47261;52.892;5.738;2023-04-07T03:42:05;20.23;;;6.87;;
61391;SDS011;47261;52.892;5.738;2023-04-07T03:44:30;24.13;;;6.47;;
61391;SDS011;47261;52.892;5.738;2023-04-07T03:46:57;6.33;;;1.97;;
61391;SDS011;47261;52.892;5.738;2023-04-07T03:49:22;13.32;;;4.18;;
61391;SDS011;47261;52.892;5.738;2023-04-07T03:51:48;16.17;;;4.75;;
61391;SDS011;47261;52.892;5.738;2023-04-07T03:54:14;17.40;;;5.20;;
61391;SDS011;47261;52.892;5.738;2023-04-07T03:56:40;22.63;;;5.97;;
61391;SDS011;47261;52.892;5.738;2023-04-07T03:59:05;13.07;;;3.63;;
61391;SDS011;47261;52.892;5.738;2023-04-07T04:01:31;22.70;;;4.95;;
61391;SDS011;47261;52.892;5.738;2023-04-07T04:03:57;24.87;;;5.00;;
61391;SDS011;47261;52.892;5.738;2023-04-07T04:06:22;17.33;;;5.05;;
61391;SDS011;47261;52.892;5.738;2023-04-07T04:08:48;20.00;;;5.07;;
61391;SDS011;47261;52.892;5.738;2023-04-07T04:11:14;17.65;;;5.15;;
61391;SDS011;47261;52.892;5.738;2023-04-07T04:13:40;25.90;;;5.30;;
61391;SDS011;47261;52.892;5.738;2023-04-07T04:16:05;18.00;;;4.53;;
61391;SDS011;47261;52.892;5.738;2023-04-07T04:18:31;23.85;;;5.10;;
61391;SDS011;47261;52.892;5.738;2023-04-07T04:20:57;20.33;;;5.67;;
61391;SDS011;47261;52.892;5.738;2023-04-07T04:23:23;28.00;;;5.40;;
61391;SDS011;47261;52.892;5.738;2023-04-07T04:25:48;23.83;;;5.15;;
61391;SDS011;47261;52.892;5.738;2023-04-07T04:28:14;25.37;;;5.23;;
61391;SDS011;47261;52.892;5.738;2023-04-07T04:30:39;20.15;;;5.63;;
61391;SDS011;47261;52.892;5.738;2023-04-07T04:33:05;27.80;;;5.87;;
61391;SDS011;47261;52.892;5.738;2023-04-07T04:35:31;27.02;;;6.20;;
61391;SDS011;47261;52.892;5.738;2023-04-07T04:37:57;25.93;;;6.07;;
61391;SDS011;47261;52.892;5.738;2023-04-07T04:40:22;25.20;;;6.18;;
61391;SDS011;47261;52.892;5.738;2023-04-07T04:42:48;29.27;;;6.70;;
61391;SDS011;47261;52.892;5.738;2023-04-07T04:45:14;48.78;;;7.22;;
61391;SDS011;47261;52.892;5.738;2023-04-07T04:47:39;19.83;;;5.50;;
61391;SDS011;47261;52.892;5.738;2023-04-07T04:50:07;29.58;;;7.32;;
61391;SDS011;47261;52.892;5.738;2023-04-07T04:52:33;31.00;;;6.78;;
61391;SDS011;47261;52.892;5.738;2023-04-07T04:54:58;37.50;;;8.90;;
61391;SDS011;47261;52.892;5.738;2023-04-07T04:57:24;47.03;;;9.13;;
61391;SDS011;47261;52.892;5.738;2023-04-07T04:59:50;56.15;;;11.25;;
61391;SDS011;47261;52.892;5.738;2023-04-07T05:02:15;75.20;;;13.50;;
61391;SDS011;47261;52.892;5.738;2023-04-07T05:04:41;58.53;;;12.53;;
61391;SDS011;47261;52.892;5.738;2023-04-07T05:07:07;73.93;;;12.47;;
61391;SDS011;47261;52.892;5.738;2023-04-07T05:09:32;76.30;;;14.20;;
61391;SDS011;47261;52.892;5.738;2023-04-07T05:11:58;77.10;;;13.40;;
61391;SDS011;47261;52.892;5.738;2023-04-07T05:14:23;71.72;;;12.20;;
61391;SDS011;47261;52.892;5.738;2023-04-07T05:16:49;110.33;;;15.73;;
61391;SDS011;47261;52.892;5.738;2023-04-07T05:19:15;131.93;;;16.55;;
61391;SDS011;47261;52.892;5.738;2023-04-07T05:21:41;156.40;;;16.50;;
61391;SDS011;47261;52.892;5.738;2023-04-07T05:24:06;158.33;;;16.70;;
61391;SDS011;47261;52.892;5.738;2023-04-07T05:26:32;170.45;;;17.70;;
61391;SDS011;47261;52.892;5.738;2023-04-07T05:28:58;148.27;;;17.77;;
61391;SDS011;47261;52.892;5.738;2023-04-07T05:31:23;137.13;;;16.67;;
61391;SDS011;47261;52.892;5.738;2023-04-07T05:33:49;136.07;;;16.63;;
61391;SDS011;47261;52.892;5.738;2023-04-07T05:36:15;140.35;;;18.05;;
61391;SDS011;47261;52.892;5.738;2023-04-07T05:38:40;185.47;;;20.60;;
61391;SDS011;47261;52.892;5.738;2023-04-07T05:41:06;181.18;;;21.95;;
61391;SDS011;47261;52.892;5.738;2023-04-07T05:43:32;178.63;;;20.67;;
61391;SDS011;47261;52.892;5.738;2023-04-07T05:45:57;188.97;;;22.13;;
61391;SDS011;47261;52.892;5.738;2023-04-07T05:48:23;174.45;;;20.95;;
61391;SDS011;47261;52.892;5.738;2023-04-07T05:50:48;149.50;;;21.07;;
61391;SDS011;47261;52.892;5.738;2023-04-07T05:53:14;171.70;;;21.63;;
61391;SDS011;47261;52.892;5.738;2023-04-07T05:55:43;151.77;;;20.10;;
61391;SDS011;47261;52.892;5.738;2023-04-07T05:58:08;163.95;;;21.88;;
61391;SDS011;47261;52.892;5.738;2023-04-07T06:00:34;175.43;;;20.97;;
61391;SDS011;47261;52.892;5.738;2023-04-07T06:03:00;180.85;;;19.58;;
61391;SDS011;47261;52.892;5.738;2023-04-07T06:05:26;181.50;;;19.73;;
61391;SDS011;47261;52.892;5.738;2023-04-07T06:07:52;147.90;;;21.13;;
61391;SDS011;47261;52.892;5.738;2023-04-07T06:10:18;149.73;;;20.98;;
61391;SDS011;47261;52.892;5.738;2023-04-07T06:12:44;138.15;;;19.73;;
61391;SDS011;47261;52.892;5.738;2023-04-07T06:15:10;139.67;;;18.00;;
61391;SDS011;47261;52.892;5.738;2023-04-07T06:17:35;126.88;;;18.90;;
61391;SDS011;47261;52.892;5.738;2023-04-07T06:20:01;108.57;;;20.17;;
61391;SDS011;47261;52.892;5.738;2023-04-07T06:22:27;125.47;;;19.02;;
61391;SDS011;47261;52.892;5.738;2023-04-07T06:24:52;115.80;;;20.77;;
61391;SDS011;47261;52.892;5.738;2023-04-07T06:27:18;114.65;;;21.30;;
61391;SDS011;47261;52.892;5.738;2023-04-07T06:29:45;95.55;;;19.77;;
61391;SDS011;47261;52.892;5.738;2023-04-07T06:32:10;94.73;;;19.07;;
61391;SDS011;47261;52.892;5.738;2023-04-07T06:34:36;113.65;;;21.17;;
61391;SDS011;47261;52.892;5.738;2023-04-07T06:37:02;101.27;;;20.63;;
61391;SDS011;47261;52.892;5.738;2023-04-07T06:39:29;97.90;;;20.13;;
61391;SDS011;47261;52.892;5.738;2023-04-07T06:41:55;101.57;;;22.88;;
61391;SDS011;47261;52.892;5.738;2023-04-07T06:44:21;109.30;;;22.60;;
61391;SDS011;47261;52.892;5.738;2023-04-07T06:46:47;108.63;;;21.55;;
61391;SDS011;47261;52.892;5.738;2023-04-07T06:49:17;94.82;;;19.38;;
61391;SDS011;47261;52.892;5.738;2023-04-07T06:51:43;89.17;;;20.50;;
61391;SDS011;47261;52.892;5.738;2023-04-07T06:54:09;86.78;;;20.27;;
61391;SDS011;47261;52.892;5.738;2023-04-07T06:56:38;76.43;;;17.70;;
61391;SDS011;47261;52.892;5.738;2023-04-07T06:59:04;88.05;;;26.52;;
61391;SDS011;47261;52.892;5.738;2023-04-07T07:01:30;55.47;;;16.53;;
61391;SDS011;47261;52.892;5.738;2023-04-07T07:03:56;58.53;;;16.35;;
61391;SDS011;47261;52.892;5.738;2023-04-07T07:06:21;72.13;;;17.13;;
61391;SDS011;47261;52.892;5.738;2023-04-07T07:08:47;74.07;;;17.70;;
61391;SDS011;47261;52.892;5.738;2023-04-07T07:11:12;75.40;;;18.10;;
61391;SDS011;47261;52.892;5.738;2023-04-07T07:13:38;82.05;;;19.00;;
61391;SDS011;47261;52.892;5.738;2023-04-07T07:16:04;82.50;;;19.93;;
61391;SDS011;47261;52.892;5.738;2023-04-07T07:18:30;83.70;;;19.55;;
61391;SDS011;47261;52.892;5.738;2023-04-07T07:20:55;80.37;;;18.33;;
61391;SDS011;47261;52.892;5.738;2023-04-07T07:23:21;85.90;;;21.70;;
61391;SDS011;47261;52.892;5.738;2023-04-07T07:25:47;82.50;;;19.85;;
61391;SDS011;47261;52.892;5.738;2023-04-07T07:28:12;84.40;;;20.33;;
61391;SDS011;47261;52.892;5.738;2023-04-07T07:30:38;85.50;;;19.45;;
61391;SDS011;47261;52.892;5.738;2023-04-07T07:33:07;83.75;;;18.20;;
61391;SDS011;47261;52.892;5.738;2023-04-07T07:35:32;85.37;;;18.67;;
61391;SDS011;47261;52.892;5.738;2023-04-07T07:37:58;77.97;;;18.47;;
61391;SDS011;47261;52.892;5.738;2023-04-07T07:40:24;75.95;;;17.95;;
61391;SDS011;47261;52.892;5.738;2023-04-07T07:42:50;79.45;;;18.25;;
61391;SDS011;47261;52.892;5.738;2023-04-07T07:45:16;83.67;;;19.23;;
61391;SDS011;47261;52.892;5.738;2023-04-07T07:47:43;76.70;;;17.77;;
61391;SDS011;47261;52.892;5.738;2023-04-07T07:50:09;67.88;;;17.25;;
61391;SDS011;47261;52.892;5.738;2023-04-07T07:52:35;64.27;;;16.53;;
61391;SDS011;47261;52.892;5.738;2023-04-07T07:55:01;62.42;;;16.33;;
61391;SDS011;47261;52.892;5.738;2023-04-07T07:57:27;57.63;;;15.10;;
61391;SDS011;47261;52.892;5.738;2023-04-07T07:59:54;58.83;;;16.50;;
61391;SDS011;47261;52.892;5.738;2023-04-07T08:02:20;57.70;;;16.58;;
61391;SDS011;47261;52.892;5.738;2023-04-07T08:04:46;57.93;;;17.17;;
61391;SDS011;47261;52.892;5.738;2023-04-07T08:07:11;51.53;;;15.93;;
61391;SDS011;47261;52.892;5.738;2023-04-07T08:09:37;43.43;;;14.90;;
61391;SDS011;47261;52.892;5.738;2023-04-07T08:12:03;49.75;;;16.30;;
61391;SDS011;47261;52.892;5.738;2023-04-07T08:14:28;47.77;;;14.97;;
61391;SDS011;47261;52.892;5.738;2023-04-07T08:16:54;44.53;;;15.10;;
61391;SDS011;47261;52.892;5.738;2023-04-07T08:19:20;41.57;;;14.97;;
61391;SDS011;47261;52.892;5.738;2023-04-07T08:21:46;42.03;;;15.02;;
61391;SDS011;47261;52.892;5.738;2023-04-07T08:24:11;38.00;;;14.63;;
61391;SDS011;47261;52.892;5.738;2023-04-07T08:26:37;45.17;;;16.83;;
61391;SDS011;47261;52.892;5.738;2023-04-07T08:29:03;44.67;;;17.30;;
61391;SDS011;47261;52.892;5.738;2023-04-07T08:31:28;38.58;;;14.73;;
61391;SDS011;47261;52.892;5.738;2023-04-07T08:33:54;36.53;;;15.17;;
61391;SDS011;47261;52.892;5.738;2023-04-07T08:36:26;34.78;;;14.65;;
61391;SDS011;47261;52.892;5.738;2023-04-07T08:38:52;36.08;;;14.40;;
61391;SDS011;47261;52.892;5.738;2023-04-07T08:41:37;34.77;;;15.00;;
61391;SDS011;47261;52.892;5.738;2023-04-07T08:44:05;36.50;;;15.45;;
61391;SDS011;47261;52.892;5.738;2023-04-07T08:46:32;35.80;;;15.38;;
61391;SDS011;47261;52.892;5.738;2023-04-07T08:48:58;40.17;;;16.10;;
61391;SDS011;47261;52.892;5.738;2023-04-07T08:51:29;37.53;;;15.20;;
61391;SDS011;47261;52.892;5.738;2023-04-07T08:54:15;36.65;;;15.38;;
61391;SDS011;47261;52.892;5.738;2023-04-07T08:56:43;36.92;;;15.05;;
61391;SDS011;47261;52.892;5.738;2023-04-07T08:59:10;37.13;;;15.32;;
61391;SDS011;47261;52.892;5.738;2023-04-07T09:01:37;36.80;;;14.90;;
61391;SDS011;47261;52.892;5.738;2023-04-07T09:04:03;37.63;;;14.60;;
61391;SDS011;47261;52.892;5.738;2023-04-07T09:06:31;39.70;;;15.60;;
61391;SDS011;47261;52.892;5.738;2023-04-07T09:08:57;34.83;;;14.32;;
61391;SDS011;47261;52.892;5.738;2023-04-07T09:11:25;34.83;;;13.25;;
61391;SDS011;47261;52.892;5.738;2023-04-07T09:13:51;38.08;;;15.18;;
61391;SDS011;47261;52.892;5.738;2023-04-07T09:16:16;37.63;;;14.70;;
61391;SDS011;47261;52.892;5.738;2023-04-07T09:18:43;37.05;;;13.65;;
61391;SDS011;47261;52.892;5.738;2023-04-07T09:21:08;34.60;;;13.40;;
61391;SDS011;47261;52.892;5.738;2023-04-07T09:23:39;34.67;;;12.65;;
61391;SDS011;47261;52.892;5.738;2023-04-07T09:26:19;26.67;;;10.20;;
61391;SDS011;47261;52.892;5.738;2023-04-07T09:28:59;28.02;;;11.68;;
61391;SDS011;47261;52.892;5.738;2023-04-07T09:31:46;16.00;;;7.00;;
61391;SDS011;47261;52.892;5.738;2023-04-07T09:34:37;18.47;;;8.47;;
61391;SDS011;47261;52.892;5.738;2023-04-07T09:37:03;18.27;;;7.07;;
61391;SDS011;47261;52.892;5.738;2023-04-07T09:39:30;14.35;;;6.80;;
61391;SDS011;47261;52.892;5.738;2023-04-07T09:41:56;13.25;;;6.40;;
61391;SDS011;47261;52.892;5.738;2023-04-07T09:44:22;12.87;;;6.00;;
61391;SDS011;47261;52.892;5.738;2023-04-07T09:46:52;14.80;;;7.43;;
61391;SDS011;47261;52.892;5.738;2023-04-07T09:49:22;13.43;;;6.93;;
61391;SDS011;47261;52.892;5.738;2023-04-07T09:54:31;12.30;;;6.17;;
61391;SDS011;47261;52.892;5.738;2023-04-07T09:57:01;10.23;;;4.65;;
61391;SDS011;47261;52.892;5.738;2023-04-07T09:59:32;12.40;;;6.85;;
61391;SDS011;47261;52.892;5.738;2023-04-07T10:01:59;10.40;;;5.22;;
61391;SDS011;47261;52.892;5.738;2023-04-07T10:04:26;14.13;;;6.95;;
61391;SDS011;47261;52.892;5.738;2023-04-07T10:06:53;14.47;;;6.23;;
61391;SDS011;47261;52.892;5.738;2023-04-07T10:09:19;11.30;;;5.75;;
61391;SDS011;47261;52.892;5.738;2023-04-07T10:11:49;10.90;;;5.25;;
61391;SDS011;47261;52.892;5.738;2023-04-07T10:14:15;10.75;;;5.13;;
61391;SDS011;47261;52.892;5.738;2023-04-07T10:16:41;12.90;;;6.53;;
61391;SDS011;47261;52.892;5.738;2023-04-07T10:19:08;10.23;;;4.70;;
61391;SDS011;47261;52.892;5.738;2023-04-07T10:21:34;13.18;;;6.60;;
61391;SDS011;47261;52.892;5.738;2023-04-07T10:26:35;11.75;;;5.38;;
61391;SDS011;47261;52.892;5.738;2023-04-07T10:29:07;12.05;;;5.05;;
61391;SDS011;47261;52.892;5.738;2023-04-07T10:31:36;8.43;;;4.43;;
61391;SDS011;47261;52.892;5.738;2023-04-07T10:34:02;10.18;;;5.07;;
61391;SDS011;47261;52.892;5.738;2023-04-07T10:36:29;10.38;;;5.30;;
61391;SDS011;47261;52.892;5.738;2023-04-07T10:41:39;9.40;;;4.65;;
61391;SDS011;47261;52.892;5.738;2023-04-07T10:44:06;11.17;;;4.80;;
61391;SDS011;47261;52.892;5.738;2023-04-07T10:49:29;7.90;;;3.45;;
61391;SDS011;47261;52.892;5.738;2023-04-07T10:52:20;8.35;;;3.60;;
61391;SDS011;47261;52.892;5.738;2023-04-07T10:54:46;7.32;;;3.05;;
61391;SDS011;47261;52.892;5.738;2023-04-07T10:57:12;8.93;;;4.00;;
61391;SDS011;47261;52.892;5.738;2023-04-07T11:02:39;7.93;;;3.40;;
61391;SDS011;47261;52.892;5.738;2023-04-07T11:05:05;9.35;;;4.28;;
61391;SDS011;47261;52.892;5.738;2023-04-07T11:07:47;8.17;;;3.50;;
61391;SDS011;47261;52.892;5.738;2023-04-07T11:10:14;8.27;;;3.40;;
61391;SDS011;47261;52.892;5.738;2023-04-07T11:12:41;12.05;;;3.50;;
61391;SDS011;47261;52.892;5.738;2023-04-07T11:15:20;8.95;;;4.20;;
61391;SDS011;47261;52.892;5.738;2023-04-07T11:17:46;10.15;;;4.70;;
61391;SDS011;47261;52.892;5.738;2023-04-07T11:23:29;9.02;;;4.90;;
61391;SDS011;47261;52.892;5.738;2023-04-07T11:26:06;9.77;;;5.10;;
61391;SDS011;47261;52.892;5.738;2023-04-07T11:28:33;12.48;;;6.43;;
61391;SDS011;47261;52.892;5.738;2023-04-07T11:30:59;12.23;;;6.10;;
61391;SDS011;47261;52.892;5.738;2023-04-07T11:33:25;11.90;;;6.43;;
61391;SDS011;47261;52.892;5.738;2023-04-07T11:35:53;11.93;;;6.53;;
61391;SDS011;47261;52.892;5.738;2023-04-07T11:38:24;13.07;;;6.07;;
61391;SDS011;47261;52.892;5.738;2023-04-07T11:40:52;14.80;;;7.27;;
61391;SDS011;47261;52.892;5.738;2023-04-07T11:43:20;14.43;;;7.90;;
61391;SDS011;47261;52.892;5.738;2023-04-07T11:46:03;14.10;;;8.55;;
61391;SDS011;47261;52.892;5.738;2023-04-07T11:48:34;15.50;;;7.47;;
61391;SDS011;47261;52.892;5.738;2023-04-07T11:51:01;15.80;;;7.35;;
61391;SDS011;47261;52.892;5.738;2023-04-07T11:53:34;14.87;;;8.43;;
61391;SDS011;47261;52.892;5.738;2023-04-07T11:56:07;15.85;;;8.68;;
61391;SDS011;47261;52.892;5.738;2023-04-07T11:58:47;15.77;;;8.60;;
61391;SDS011;47261;52.892;5.738;2023-04-07T12:01:13;14.30;;;7.65;;
61391;SDS011;47261;52.892;5.738;2023-04-07T12:03:53;15.40;;;8.03;;
61391;SDS011;47261;52.892;5.738;2023-04-07T12:06:29;12.55;;;6.07;;
61391;SDS011;47261;52.892;5.738;2023-04-07T12:09:02;13.50;;;7.18;;
61391;SDS011;47261;52.892;5.738;2023-04-07T12:11:28;12.95;;;6.97;;
61391;SDS011;47261;52.892;5.738;2023-04-07T12:13:54;16.63;;;7.40;;
61391;SDS011;47261;52.892;5.738;2023-04-07T12:16:20;12.35;;;6.25;;
61391;SDS011;47261;52.892;5.738;2023-04-07T12:18:46;12.05;;;6.20;;
61391;SDS011;47261;52.892;5.738;2023-04-07T12:21:12;12.30;;;6.80;;
61391;SDS011;47261;52.892;5.738;2023-04-07T12:23:38;12.05;;;6.10;;
61391;SDS011;47261;52.892;5.738;2023-04-07T12:26:03;12.27;;;6.17;;
61391;SDS011;47261;52.892;5.738;2023-04-07T12:28:29;13.65;;;7.25;;
61391;SDS011;47261;52.892;5.738;2023-04-07T12:30:55;12.30;;;6.87;;
61391;SDS011;47261;52.892;5.738;2023-04-07T12:33:20;12.77;;;6.57;;
61391;SDS011;47261;52.892;5.738;2023-04-07T12:35:46;15.27;;;7.40;;
61391;SDS011;47261;52.892;5.738;2023-04-07T12:38:12;14.03;;;6.60;;
61391;SDS011;47261;52.892;5.738;2023-04-07T12:40:38;13.50;;;5.67;;
61391;SDS011;47261;52.892;5.738;2023-04-07T12:43:04;25.98;;;7.72;;
61391;SDS011;47261;52.892;5.738;2023-04-07T12:45:30;13.85;;;7.28;;
61391;SDS011;47261;52.892;5.738;2023-04-07T12:47:56;12.77;;;7.23;;
61391;SDS011;47261;52.892;5.738;2023-04-07T12:50:22;13.25;;;7.22;;
61391;SDS011;47261;52.892;5.738;2023-04-07T12:52:49;15.70;;;6.88;;
61391;SDS011;47261;52.892;5.738;2023-04-07T12:55:16;14.13;;;7.05;;
61391;SDS011;47261;52.892;5.738;2023-04-07T12:57:42;12.53;;;6.50;;
61391;SDS011;47261;52.892;5.738;2023-04-07T13:00:08;14.88;;;7.47;;
61391;SDS011;47261;52.892;5.738;2023-04-07T13:02:34;13.52;;;6.55;;
61391;SDS011;47261;52.892;5.738;2023-04-07T13:05:02;13.95;;;7.45;;
61391;SDS011;47261;52.892;5.738;2023-04-07T13:07:28;12.77;;;7.10;;
61391;SDS011;47261;52.892;5.738;2023-04-07T13:09:54;13.63;;;7.63;;
61391;SDS011;47261;52.892;5.738;2023-04-07T13:12:21;12.75;;;6.45;;
61391;SDS011;47261;52.892;5.738;2023-04-07T13:14:47;12.88;;;6.72;;
61391;SDS011;47261;52.892;5.738;2023-04-07T13:17:13;11.47;;;6.77;;
61391;SDS011;47261;52.892;5.738;2023-04-07T13:19:39;12.00;;;6.50;;
61391;SDS011;47261;52.892;5.738;2023-04-07T13:22:05;11.70;;;6.93;;
61391;SDS011;47261;52.892;5.738;2023-04-07T13:24:30;12.40;;;6.93;;
61391;SDS011;47261;52.892;5.738;2023-04-07T13:26:56;13.25;;;6.55;;
61391;SDS011;47261;52.892;5.738;2023-04-07T13:29:22;11.10;;;5.63;;
61391;SDS011;47261;52.892;5.738;2023-04-07T13:31:48;11.13;;;6.40;;
61391;SDS011;47261;52.892;5.738;2023-04-07T13:34:14;10.88;;;6.00;;
61391;SDS011;47261;52.892;5.738;2023-04-07T13:36:40;10.10;;;5.57;;
61391;SDS011;47261;52.892;5.738;2023-04-07T13:39:06;11.57;;;5.70;;
61391;SDS011;47261;52.892;5.738;2023-04-07T13:41:32;12.07;;;6.13;;
61391;SDS011;47261;52.892;5.738;2023-04-07T13:43:58;10.10;;;5.07;;
61391;SDS011;47261;52.892;5.738;2023-04-07T13:46:25;8.83;;;4.70;;
61391;SDS011;47261;52.892;5.738;2023-04-07T13:48:51;10.38;;;5.68;;
61391;SDS011;47261;52.892;5.738;2023-04-07T13:51:17;10.77;;;5.85;;
61391;SDS011;47261;52.892;5.738;2023-04-07T13:53:42;9.20;;;4.53;;
61391;SDS011;47261;52.892;5.738;2023-04-07T13:56:09;8.52;;;4.32;;
61391;SDS011;47261;52.892;5.738;2023-04-07T13:58:34;9.85;;;4.75;;
61391;SDS011;47261;52.892;5.738;2023-04-07T14:01:00;9.77;;;4.37;;
61391;SDS011;47261;52.892;5.738;2023-04-07T14:03:27;8.05;;;3.80;;
61391;SDS011;47261;52.892;5.738;2023-04-07T14:05:53;8.18;;;3.80;;
61391;SDS011;47261;52.892;5.738;2023-04-07T14:08:20;7.43;;;3.78;;
61391;SDS011;47261;52.892;5.738;2023-04-07T14:10:47;7.70;;;4.20;;
61391;SDS011;47261;52.892;5.738;2023-04-07T14:13:16;8.05;;;3.72;;
61391;SDS011;47261;52.892;5.738;2023-04-07T14:15:41;8.70;;;4.50;;
61391;SDS011;47261;52.892;5.738;2023-04-07T14:18:07;9.50;;;5.13;;
61391;SDS011;47261;52.892;5.738;2023-04-07T14:20:33;12.02;;;5.60;;
61391;SDS011;47261;52.892;5.738;2023-04-07T14:22:59;11.00;;;5.83;;
61391;SDS011;47261;52.892;5.738;2023-04-07T14:25:25;10.93;;;5.50;;
61391;SDS011;47261;52.892;5.738;2023-04-07T14:27:51;12.77;;;6.37;;
61391;SDS011;47261;52.892;5.738;2023-04-07T14:30:17;11.17;;;5.40;;
61391;SDS011;47261;52.892;5.738;2023-04-07T14:32:43;9.50;;;4.97;;
61391;SDS011;47261;52.892;5.738;2023-04-07T14:35:08;10.47;;;5.50;;
61391;SDS011;47261;52.892;5.738;2023-04-07T14:37:34;10.30;;;5.07;;
61391;SDS011;47261;52.892;5.738;2023-04-07T14:40:01;9.38;;;4.85;;
61391;SDS011;47261;52.892;5.738;2023-04-07T14:42:27;10.07;;;4.72;;
61391;SDS011;47261;52.892;5.738;2023-04-07T14:44:54;10.73;;;5.43;;
61391;SDS011;47261;52.892;5.738;2023-04-07T14:47:19;9.25;;;4.90;;
61391;SDS011;47261;52.892;5.738;2023-04-07T14:49:45;10.02;;;5.40;;
61391;SDS011;47261;52.892;5.738;2023-04-07T14:52:11;9.87;;;4.90;;
61391;SDS011;47261;52.892;5.738;2023-04-07T14:54:38;10.57;;;5.43;;